Time;durP1;ratioP1;P1;durP2;ratioP2;P2;SDS_P1;SDS_P2;PMS_P1;PMS_P2;Temp;Humidity;BMP_temperature;BMP_pressure;BME280_temperature;BME280_humidity;BME280_pressure;Samples;Min_cycle;Max_cycle;Signal;HPM_P1;HPM_P2
2022/06/10 00:01:00;;;;;;;10.35;2.58;;;15.40;99.90;;;;;;4951642;29;20352;-82
2022/06/10 00:03:27;;;;;;;15.60;2.78;;;15.40;99.90;;;;;;4949178;29;20200;-82
2022/06/10 00:05:58;;;;;;;11.40;2.72;;;15.40;99.90;;;;;;4962465;28;20209;-82
2022/06/10 00:08:27;;;;;;;8.50;2.15;;;15.30;99.90;;;;;;4972799;28;20200;-83
2022/06/10 00:10:55;;;;;;;16.92;2.65;;;15.40;99.90;;;;;;4973898;28;20204;-82
2022/06/10 00:13:29;;;;;;;13.68;3.28;;;15.30;99.90;;;;;;4973304;28;20220;-84
2022/06/10 00:15:56;;;;;;;12.88;3.28;;;15.20;99.90;;;;;;4973673;28;20197;-88
2022/06/10 00:18:25;;;;;;;11.50;2.40;;;15.20;99.90;;;;;;4974156;28;20924;-86
2022/06/10 00:20:52;;;;;;;9.10;2.85;;;15.10;99.90;;;;;;4973851;28;20231;-85
2022/06/10 00:23:20;;;;;;;11.55;2.92;;;15.10;99.90;;;;;;4963540;28;20213;-85
2022/06/10 00:25:48;;;;;;;17.42;3.85;;;15.00;99.90;;;;;;4954939;29;20205;-82
2022/06/10 00:28:16;;;;;;;14.48;2.90;;;14.90;99.90;;;;;;4954054;29;20209;-84
2022/06/10 00:30:44;;;;;;;12.65;3.05;;;14.90;99.90;;;;;;4955365;29;20631;-85
2022/06/10 00:33:12;;;;;;;12.77;2.77;;;14.80;99.90;;;;;;4972078;28;20211;-81
2022/06/10 00:35:40;;;;;;;7.93;2.53;;;14.80;99.90;;;;;;4972367;28;20259;-82
2022/06/10 00:38:07;;;;;;;14.27;2.60;;;14.70;99.90;;;;;;4972091;28;20204;-82
2022/06/10 00:40:38;;;;;;;15.90;3.20;;;14.60;99.90;;;;;;4974206;28;20319;-84
2022/06/10 00:43:05;;;;;;;8.67;2.73;;;14.60;99.90;;;;;;4991039;28;20210;-82
2022/06/10 00:45:58;;;;;;;9.97;2.80;;;14.60;99.90;;;;;;4979464;28;20209;-84
2022/06/10 00:48:34;;;;;;;10.03;3.17;;;14.50;99.90;;;;;;4971669;28;20240;-81
2022/06/10 00:51:13;;;;;;;8.70;2.57;;;14.50;99.90;;;;;;4971715;28;20228;-85
2022/06/10 00:53:41;;;;;;;10.07;2.85;;;14.50;99.90;;;;;;4972242;28;20201;-85
2022/06/10 00:56:14;;;;;;;10.67;2.73;;;14.50;99.90;;;;;;4972588;28;20205;-86
2022/06/10 00:58:47;;;;;;;10.27;2.93;;;14.50;99.90;;;;;;4972433;28;20783;-83
2022/06/10 01:01:15;;;;;;;7.20;2.13;;;14.50;99.90;;;;;;4957733;28;20407;-82
2022/06/10 01:03:42;;;;;;;10.87;2.90;;;14.50;99.90;;;;;;4953150;29;20283;-83
2022/06/10 01:06:11;;;;;;;10.38;2.47;;;14.50;99.90;;;;;;4952894;28;20905;-84
2022/06/10 01:08:39;;;;;;;12.00;2.60;;;14.50;99.90;;;;;;4953106;28;20301;-82
2022/06/10 01:11:37;;;;;;;10.80;2.72;;;14.60;99.90;;;;;;4952540;29;20526;-82
2022/06/10 01:14:13;;;;;;;6.93;2.57;;;14.60;99.90;;;;;;4952571;29;20637;-86
2022/06/10 01:16:47;;;;;;;10.17;2.30;;;14.60;99.90;;;;;;4955471;28;20231;-84
2022/06/10 01:19:30;;;;;;;11.33;2.83;;;14.60;99.90;;;;;;4970349;28;20197;-81
2022/06/10 01:22:29;;;;;;;10.30;3.17;;;14.60;99.90;;;;;;4971166;28;20331;-83
2022/06/10 01:25:19;;;;;;;10.23;2.80;;;14.60;99.90;;;;;;4969751;28;20865;-82
2022/06/10 01:28:05;;;;;;;9.07;2.67;;;14.60;99.90;;;;;;4970290;28;20211;-81
2022/06/10 01:31:05;;;;;;;8.40;2.33;;;14.70;99.90;;;;;;4970646;28;20621;-82
2022/06/10 01:33:44;;;;;;;8.50;2.63;;;14.70;99.90;;;;;;4969401;28;20205;-82
2022/06/10 01:36:21;;;;;;;13.60;3.42;;;14.70;99.90;;;;;;4951063;29;20217;-84
2022/06/10 01:38:53;;;;;;;7.23;2.57;;;14.70;99.90;;;;;;4953021;28;20513;-82
2022/06/10 01:41:30;;;;;;;10.37;2.43;;;14.70;99.90;;;;;;4989762;28;20212;-84
2022/06/10 01:44:09;;;;;;;12.63;2.57;;;14.80;99.90;;;;;;4989959;28;20206;-85
2022/06/10 01:46:43;;;;;;;11.60;3.57;;;14.80;99.90;;;;;;4988087;28;20618;-81
2022/06/10 01:49:18;;;;;;;7.77;2.40;;;14.80;99.90;;;;;;4969475;28;20236;-82
2022/06/10 01:51:50;;;;;;;9.03;2.80;;;14.80;99.90;;;;;;4969696;28;20703;-87
2022/06/10 01:54:23;;;;;;;9.50;2.20;;;14.80;99.90;;;;;;4970548;28;20211;-84
2022/06/10 01:56:53;;;;;;;10.97;2.57;;;14.80;99.90;;;;;;4969764;28;20747;-83
2022/06/10 01:59:24;;;;;;;10.70;2.50;;;14.80;99.90;;;;;;4970658;28;20498;-82
2022/06/10 02:01:59;;;;;;;7.47;2.20;;;14.80;99.90;;;;;;4970206;28;20232;-83
2022/06/10 02:04:30;;;;;;;8.43;2.70;;;14.90;99.90;;;;;;4951671;29;20237;-84
2022/06/10 02:07:02;;;;;;;7.87;2.50;;;14.80;99.90;;;;;;4951040;29;20209;-84
2022/06/10 02:09:34;;;;;;;7.80;2.50;;;14.90;99.90;;;;;;4967681;28;20211;-83
2022/06/10 02:12:06;;;;;;;14.87;3.03;;;14.90;99.90;;;;;;4989918;28;20298;-85
2022/06/10 02:14:43;;;;;;;5.97;1.83;;;14.90;99.90;;;;;;4990025;28;20320;-85
2022/06/10 02:17:15;;;;;;;6.60;2.30;;;14.90;99.90;;;;;;4976484;28;20597;-84
2022/06/10 02:19:45;;;;;;;9.00;2.73;;;15.00;99.90;;;;;;4979514;28;20489;-83
2022/06/10 02:22:15;;;;;;;7.93;2.47;;;15.00;99.90;;;;;;4988832;28;20212;-84
2022/06/10 02:24:45;;;;;;;10.27;2.43;;;15.00;99.90;;;;;;4990043;28;20204;-82
2022/06/10 02:27:16;;;;;;;10.13;3.55;;;15.00;99.90;;;;;;4987019;28;20211;-84
2022/06/10 02:29:50;;;;;;;15.05;2.63;;;15.00;99.90;;;;;;4969391;28;20278;-83
2022/06/10 02:32:19;;;;;;;6.13;2.42;;;15.10;99.90;;;;;;4968131;28;20195;-82
2022/06/10 02:34:46;;;;;;;9.30;2.80;;;15.10;99.90;;;;;;4967564;28;20200;-81
2022/06/10 02:37:26;;;;;;;14.70;2.67;;;15.20;99.90;;;;;;4950185;28;20216;-81
2022/06/10 02:40:02;;;;;;;8.98;2.47;;;15.30;99.90;;;;;;4947878;29;20185;-81
2022/06/10 02:42:36;;;;;;;9.23;2.20;;;15.30;99.90;;;;;;4950332;28;20259;-82
2022/06/10 02:45:10;;;;;;;16.40;2.97;;;15.20;99.90;;;;;;4949020;29;20201;-80
2022/06/10 02:47:48;;;;;;;11.23;2.90;;;15.20;99.90;;;;;;4952835;28;20287;-80
2022/06/10 02:50:17;;;;;;;7.60;2.15;;;15.20;99.90;;;;;;4952029;28;20674;-81
2022/06/10 02:52:46;;;;;;;8.20;2.95;;;15.20;99.90;;;;;;4953454;28;20201;-82
2022/06/10 02:55:17;;;;;;;10.93;2.40;;;15.20;99.90;;;;;;4968722;28;20567;-83
2022/06/10 03:03:51;;;;;;;10.57;2.75;;;15.20;99.90;;;;;;4967329;28;20256;-81
2022/06/10 03:06:25;;;;;;;11.20;2.85;;;15.20;99.90;;;;;;4968173;28;20200;-80
2022/06/10 03:09:00;;;;;;;8.93;2.70;;;15.20;99.90;;;;;;4969519;28;20543;-84
2022/06/10 03:11:34;;;;;;;13.82;2.95;;;15.20;99.90;;;;;;4987701;28;20191;-81
2022/06/10 03:14:09;;;;;;;10.50;3.07;;;15.20;99.90;;;;;;4988166;28;20588;-84
2022/06/10 03:16:50;;;;;;;9.02;3.63;;;15.20;99.90;;;;;;4987920;28;20205;-81
2022/06/10 03:19:33;;;;;;;6.53;2.43;;;15.20;99.90;;;;;;4960686;28;20208;-80
2022/06/10 03:22:08;;;;;;;11.43;3.40;;;15.20;99.90;;;;;;4967551;28;20530;-80
2022/06/10 03:24:42;;;;;;;9.17;2.40;;;15.20;99.90;;;;;;4969206;28;20212;-81
2022/06/10 03:27:18;;;;;;;10.77;2.60;;;15.30;99.90;;;;;;4968473;28;20214;-83
2022/06/10 03:29:50;;;;;;;10.00;2.47;;;15.30;99.90;;;;;;4968579;28;20204;-83
2022/06/10 03:32:22;;;;;;;10.83;2.80;;;15.30;99.90;;;;;;4968047;28;20737;-80
2022/06/10 03:34:56;;;;;;;9.25;2.95;;;15.30;99.90;;;;;;4968167;28;20287;-83
2022/06/10 03:37:24;;;;;;;12.98;3.72;;;15.30;99.90;;;;;;4968504;28;20304;-80
2022/06/10 03:39:52;;;;;;;10.80;2.92;;;15.30;99.90;;;;;;4969531;28;20279;-82
2022/06/10 03:42:21;;;;;;;7.13;2.70;;;15.30;99.90;;;;;;4969108;28;20837;-83
2022/06/10 03:44:51;;;;;;;7.10;2.38;;;15.30;99.90;;;;;;4953946;29;20197;-81
2022/06/10 03:47:20;;;;;;;9.27;2.60;;;15.30;99.90;;;;;;4952671;29;20879;-80
2022/06/10 03:49:55;;;;;;;12.45;3.45;;;15.30;99.90;;;;;;4962907;29;20216;-83
2022/06/10 03:52:25;;;;;;;10.25;3.05;;;15.30;99.90;;;;;;4992576;28;20210;-86
2022/06/10 03:54:52;;;;;;;10.15;3.55;;;15.30;99.90;;;;;;4994660;28;20263;-83
2022/06/10 03:57:19;;;;;;;12.65;3.13;;;15.40;99.90;;;;;;4993854;28;20264;-89
2022/06/10 03:59:46;;;;;;;13.30;3.53;;;15.40;99.90;;;;;;4972082;28;20224;-91
2022/06/10 04:02:13;;;;;;;8.38;2.92;;;15.40;99.90;;;;;;4969213;28;20296;-80
2022/06/10 04:04:42;;;;;;;10.27;3.10;;;15.40;99.90;;;;;;4969532;28;20200;-82
2022/06/10 04:07:11;;;;;;;12.98;3.88;;;15.40;99.90;;;;;;4968236;28;20227;-81
2022/06/10 04:09:38;;;;;;;12.95;4.22;;;15.50;99.90;;;;;;4987286;28;20502;-83
2022/06/10 04:12:05;;;;;;;13.98;3.70;;;15.50;99.90;;;;;;4988508;28;20200;-90
2022/06/10 04:14:32;;;;;;;10.88;3.83;;;15.50;99.90;;;;;;4987722;28;20196;-83
2022/06/10 04:17:00;;;;;;;13.55;3.28;;;15.50;99.90;;;;;;4975978;28;20216;-83
2022/06/10 04:19:27;;;;;;;12.00;3.17;;;15.50;99.90;;;;;;4968753;28;20255;-82
2022/06/10 04:21:54;;;;;;;9.93;3.03;;;15.50;99.90;;;;;;4965703;28;20224;-85
2022/06/10 04:24:23;;;;;;;11.27;3.40;;;15.60;99.90;;;;;;4949537;29;20209;-82
2022/06/10 04:26:50;;;;;;;12.77;3.87;;;15.50;99.90;;;;;;4949894;28;20304;-86
2022/06/10 04:29:17;;;;;;;9.23;3.08;;;15.60;99.90;;;;;;4949179;29;20511;-83
2022/06/10 04:31:44;;;;;;;11.07;3.70;;;15.50;99.90;;;;;;4950652;28;20210;-84
2022/06/10 04:34:12;;;;;;;8.90;2.88;;;15.60;99.90;;;;;;4964780;28;20213;-83
2022/06/10 04:36:39;;;;;;;10.07;3.60;;;15.60;99.90;;;;;;4968566;28;20193;-81
2022/06/10 04:39:06;;;;;;;15.23;4.10;;;15.60;99.90;;;;;;4954425;28;20619;-88
2022/06/10 04:41:35;;;;;;;11.60;3.37;;;15.60;99.90;;;;;;4949371;29;20308;-82
2022/06/10 04:44:02;;;;;;;16.15;3.63;;;15.60;99.90;;;;;;4950440;28;20217;-88
2022/06/10 04:46:34;;;;;;;11.98;3.45;;;15.60;99.90;;;;;;4949892;29;20211;-85
2022/06/10 04:49:01;;;;;;;13.80;3.67;;;15.70;99.90;;;;;;4987999;28;20259;-83
2022/06/10 04:51:28;;;;;;;15.60;4.63;;;15.70;99.90;;;;;;4976654;28;20233;-83
2022/06/10 04:53:55;;;;;;;12.40;3.35;;;15.80;99.90;;;;;;4952762;29;20320;-86
2022/06/10 04:56:22;;;;;;;12.30;3.55;;;15.80;99.90;;;;;;4952424;29;20209;-84
2022/06/10 04:58:50;;;;;;;13.48;3.83;;;15.80;99.90;;;;;;4953380;28;20516;-83
2022/06/10 05:01:18;;;;;;;13.05;3.25;;;15.90;99.90;;;;;;4952780;29;20220;-84
2022/06/10 05:03:45;;;;;;;16.67;3.90;;;15.90;99.90;;;;;;4949218;29;20324;-81
2022/06/10 05:06:12;;;;;;;14.63;4.13;;;15.90;99.90;;;;;;4948364;28;20304;-82
2022/06/10 05:08:38;;;;;;;14.33;3.27;;;16.00;99.90;;;;;;4948563;29;20198;-80
2022/06/10 05:11:07;;;;;;;12.20;3.33;;;16.00;99.90;;;;;;4949045;29;20958;-82
2022/06/10 05:13:34;;;;;;;7.13;2.33;;;16.00;99.90;;;;;;4965811;28;20217;-82
2022/06/10 05:16:03;;;;;;;15.48;3.50;;;16.10;99.90;;;;;;4967375;28;20287;-81
2022/06/10 05:18:31;;;;;;;10.63;3.28;;;16.10;99.90;;;;;;4967472;28;20232;-80
2022/06/10 05:20:58;;;;;;;11.40;3.40;;;16.10;99.90;;;;;;4961143;28;20221;-81
2022/06/10 05:23:26;;;;;;;11.40;3.40;;;16.10;99.90;;;;;;4948760;29;20233;-82
2022/06/10 05:25:54;;;;;;;13.05;3.78;;;16.10;99.90;;;;;;4932103;29;20568;-80
2022/06/10 05:28:22;;;;;;;14.10;3.33;;;16.10;99.90;;;;;;4949143;29;20288;-82
2022/06/10 05:30:49;;;;;;;11.13;3.42;;;16.10;99.90;;;;;;4967290;28;20323;-79
2022/06/10 05:33:18;;;;;;;9.07;2.70;;;16.10;99.90;;;;;;4968420;28;20211;-81
2022/06/10 05:35:45;;;;;;;15.20;3.50;;;16.10;99.90;;;;;;4967429;28;20242;-79
2022/06/10 05:38:12;;;;;;;8.98;3.17;;;16.10;99.90;;;;;;4952118;28;20586;-84
2022/06/10 05:40:39;;;;;;;9.20;2.90;;;16.10;99.90;;;;;;4949929;29;20278;-87
2022/06/10 05:43:07;;;;;;;9.05;3.30;;;16.10;99.90;;;;;;4949678;29;20228;-81
2022/06/10 05:45:34;;;;;;;12.50;3.20;;;16.10;99.90;;;;;;4957553;28;20789;-81
2022/06/10 05:48:02;;;;;;;10.10;3.40;;;16.10;99.90;;;;;;4988499;28;20247;-78
2022/06/10 05:50:34;;;;;;;6.47;2.42;;;16.10;99.90;;;;;;4987400;28;20658;-80
2022/06/10 05:53:02;;;;;;;10.52;3.55;;;16.10;99.90;;;;;;4989286;28;20196;-81
2022/06/10 05:55:31;;;;;;;14.57;3.80;;;16.10;99.90;;;;;;4984411;28;20214;-81
2022/06/10 05:57:58;;;;;;;10.70;3.13;;;16.00;99.90;;;;;;4967690;28;20551;-84
2022/06/10 06:00:28;;;;;;;13.55;3.83;;;16.10;99.90;;;;;;4969952;28;20208;-86
2022/06/10 06:02:55;;;;;;;8.50;3.28;;;16.10;99.90;;;;;;4955442;28;20849;-86
2022/06/10 06:05:23;;;;;;;5.65;2.95;;;16.10;99.90;;;;;;4950840;29;20586;-82
2022/06/10 06:07:52;;;;;;;8.02;3.42;;;16.20;99.90;;;;;;4951570;29;20272;-82
2022/06/10 06:10:22;;;;;;;9.43;3.58;;;16.30;99.90;;;;;;4966183;28;20530;-83
2022/06/10 06:12:49;;;;;;;6.75;2.85;;;16.30;99.90;;;;;;4974875;23;20301;-82
2022/06/10 06:15:16;;;;;;;11.27;3.00;;;16.30;99.90;;;;;;4967120;28;20212;-84
2022/06/10 06:17:43;;;;;;;9.82;4.00;;;16.20;99.90;;;;;;4956778;28;20213;-80
2022/06/10 06:20:14;;;;;;;6.53;3.00;;;16.30;99.90;;;;;;4947490;29;20277;-80
2022/06/10 06:22:42;;;;;;;8.53;2.93;;;16.30;99.90;;;;;;4948007;29;20231;-80
2022/06/10 06:25:15;;;;;;;12.52;3.67;;;16.40;99.90;;;;;;4949996;28;20208;-79
2022/06/10 06:27:42;;;;;;;10.63;3.47;;;16.30;99.90;;;;;;4967325;28;20577;-80
2022/06/10 06:30:15;;;;;;;9.25;3.38;;;16.30;99.90;;;;;;4966347;28;20276;-80
2022/06/10 06:32:42;;;;;;;11.80;3.17;;;16.40;99.90;;;;;;4948688;28;20204;-82
2022/06/10 06:35:09;;;;;;;9.43;3.47;;;16.40;99.90;;;;;;4973984;28;20210;-87
2022/06/10 06:37:36;;;;;;;8.15;3.00;;;16.40;99.90;;;;;;4986042;28;20652;-82
2022/06/10 06:40:04;;;;;;;10.07;3.08;;;16.50;99.90;;;;;;4985748;28;20228;-80
2022/06/10 06:42:32;;;;;;;7.13;3.28;;;16.50;99.90;;;;;;4950225;28;20300;-82
2022/06/10 06:45:00;;;;;;;9.18;3.15;;;16.60;99.90;;;;;;4955275;28;20640;-82
2022/06/10 06:47:28;;;;;;;6.85;2.50;;;16.60;99.90;;;;;;4964693;28;20223;-80
2022/06/10 06:49:55;;;;;;;7.93;2.80;;;16.70;99.90;;;;;;4967234;28;20396;-81
2022/06/10 06:52:22;;;;;;;11.48;3.55;;;16.70;99.90;;;;;;4967352;28;20205;-82
2022/06/10 06:54:50;;;;;;;10.65;3.63;;;16.80;99.90;;;;;;4966626;28;20224;-80
2022/06/10 06:57:18;;;;;;;6.63;3.10;;;16.80;99.90;;;;;;4966546;28;20223;-81
2022/06/10 06:59:46;;;;;;;10.07;3.70;;;16.90;99.90;;;;;;4967358;28;20211;-79
2022/06/10 07:02:13;;;;;;;7.47;2.67;;;16.90;99.90;;;;;;4966449;28;20219;-83
2022/06/10 07:04:40;;;;;;;10.52;3.55;;;17.00;99.90;;;;;;4968019;28;20258;-84
2022/06/10 07:07:07;;;;;;;7.88;2.92;;;17.00;99.90;;;;;;4968187;28;20608;-84
2022/06/10 07:09:34;;;;;;;6.97;2.83;;;17.10;99.90;;;;;;4968065;28;20255;-88
2022/06/10 07:12:01;;;;;;;9.35;3.00;;;17.10;99.90;;;;;;4949732;29;20210;-86
2022/06/10 07:14:28;;;;;;;11.00;3.50;;;17.20;99.90;;;;;;4951515;28;20324;-88
2022/06/10 07:16:56;;;;;;;7.15;2.70;;;17.30;99.90;;;;;;4969885;28;20200;-83
2022/06/10 07:19:23;;;;;;;6.00;2.83;;;17.30;99.90;;;;;;4968569;28;20205;-82
2022/06/10 07:21:50;;;;;;;7.10;2.50;;;17.30;99.90;;;;;;4953737;28;20533;-85
2022/06/10 07:24:17;;;;;;;9.23;2.67;;;17.30;99.90;;;;;;4947791;29;20325;-83
2022/06/10 07:26:44;;;;;;;12.68;3.33;;;17.40;99.90;;;;;;4953970;28;20205;-84
2022/06/10 07:29:11;;;;;;;7.50;2.70;;;17.40;99.90;;;;;;4966749;28;20208;-81
2022/06/10 07:31:40;;;;;;;9.38;3.03;;;17.40;99.90;;;;;;4967327;28;20626;-80
2022/06/10 07:34:08;;;;;;;10.50;3.03;;;17.50;99.90;;;;;;4961235;28;20236;-81
2022/06/10 07:36:36;;;;;;;8.77;3.05;;;17.50;99.90;;;;;;4947679;29;20213;-84
2022/06/10 07:39:03;;;;;;;9.55;3.33;;;17.50;99.90;;;;;;4973635;28;20223;-82
2022/06/10 07:44:19;;;;;;;7.90;2.67;;;17.60;99.90;;;;;;4984871;28;20250;-81
2022/06/10 07:46:47;;;;;;;8.20;2.80;;;17.60;99.90;;;;;;4968039;28;20225;-83
2022/06/10 07:49:16;;;;;;;10.55;3.70;;;17.60;99.90;;;;;;4946661;29;20697;-81
2022/06/10 07:51:42;;;;;;;14.88;3.50;;;17.70;99.90;;;;;;4946792;29;20217;-81
2022/06/10 07:54:09;;;;;;;15.13;3.33;;;17.70;99.90;;;;;;4947146;28;20209;-83
2022/06/10 07:56:36;;;;;;;9.40;3.35;;;17.80;99.90;;;;;;4946863;29;20197;-81
2022/06/10 07:59:03;;;;;;;11.60;2.70;;;17.80;99.90;;;;;;4946986;29;20663;-83
2022/06/10 08:01:30;;;;;;;8.10;3.00;;;17.80;99.90;;;;;;4947962;28;20213;-81
2022/06/10 08:03:58;;;;;;;13.23;3.13;;;17.80;99.90;;;;;;4965866;28;20275;-84
2022/06/10 08:06:28;;;;;;;12.57;3.38;;;17.90;99.90;;;;;;4967315;28;20212;-83
2022/06/10 08:08:56;;;;;;;13.38;3.70;;;17.90;99.90;;;;;;4966693;28;20210;-82
2022/06/10 08:11:23;;;;;;;9.32;2.88;;;18.00;99.90;;;;;;4960787;28;20213;-82
2022/06/10 08:13:50;;;;;;;11.25;3.10;;;18.10;99.90;;;;;;4948217;28;20249;-84
2022/06/10 08:16:19;;;;;;;11.20;3.22;;;18.10;99.90;;;;;;4948837;29;20209;-83
2022/06/10 08:18:46;;;;;;;8.40;3.13;;;18.20;99.90;;;;;;4948813;28;20505;-86
2022/06/10 08:24:01;;;;;;;12.70;3.70;;;18.20;99.90;;;;;;4950662;29;20263;-88
2022/06/10 08:26:29;;;;;;;8.57;3.35;;;18.20;99.90;;;;;;4987998;28;20277;-86
2022/06/10 08:28:58;;;;;;;12.48;3.60;;;18.30;99.90;;;;;;4994472;28;20204;-86
2022/06/10 08:31:25;;;;;;;15.93;4.25;;;18.30;99.90;;;;;;4976883;28;20282;-87
2022/06/10 08:33:54;;;;;;;9.75;3.90;;;18.40;99.90;;;;;;4972955;28;20223;-85
2022/06/10 08:36:20;;;;;;;12.20;3.30;;;18.60;99.90;;;;;;4972035;28;20243;-91
2022/06/10 08:38:47;;;;;;;11.38;3.17;;;18.80;99.90;;;;;;4972006;28;20228;-88
2022/06/10 08:41:22;;;;;;;8.95;2.85;;;19.20;99.90;;;;;;4971906;28;20236;-86
2022/06/10 08:43:59;;;;;;;10.07;3.50;;;19.50;99.90;;;;;;4972202;28;20228;-90
2022/06/10 08:46:49;;;;;;;11.40;3.65;;;19.70;99.90;;;;;;4970655;28;20333;-89
2022/06/10 08:49:44;;;;;;;9.80;3.30;;;19.90;99.90;;;;;;4964647;28;20386;-80
2022/06/10 08:52:19;;;;;;;13.45;3.45;;;20.00;99.90;;;;;;4964041;28;20227;-81
2022/06/10 08:54:55;;;;;;;9.52;3.72;;;20.00;99.90;;;;;;4968194;28;20208;-82
2022/06/10 08:57:32;;;;;;;10.55;3.33;;;20.00;99.90;;;;;;4970075;28;20227;-88
2022/06/10 09:00:01;;;;;;;9.52;3.80;;;20.30;99.90;;;;;;4970386;28;20219;-86
2022/06/10 09:02:32;;;;;;;10.25;3.28;;;20.50;99.90;;;;;;4972267;28;20223;-85
2022/06/10 09:05:06;;;;;;;9.43;3.50;;;20.60;99.90;;;;;;4972101;28;20234;-89
2022/06/10 09:07:43;;;;;;;10.45;3.13;;;20.80;99.90;;;;;;4970538;28;20597;-84
2022/06/10 09:10:20;;;;;;;10.68;3.30;;;20.70;99.90;;;;;;4971936;28;20213;-86
2022/06/10 09:13:10;;;;;;;12.00;3.72;;;20.70;99.90;;;;;;4969788;28;20221;-86
2022/06/10 09:15:43;;;;;;;8.80;2.90;;;20.70;99.90;;;;;;4971579;28;20275;-88
2022/06/10 09:18:22;;;;;;;7.72;2.70;;;20.90;99.90;;;;;;4971839;28;20487;-80
2022/06/10 09:20:58;;;;;;;10.27;2.88;;;21.10;99.90;;;;;;4968189;28;20218;-86
2022/06/10 09:23:32;;;;;;;11.65;2.97;;;21.20;99.90;;;;;;4965500;28;20240;-82
2022/06/10 09:26:08;;;;;;;8.93;3.13;;;21.30;99.90;;;;;;4967234;28;20216;-81
2022/06/10 09:28:37;;;;;;;8.55;2.47;;;21.20;99.90;;;;;;4966391;28;20675;-80
2022/06/10 09:31:09;;;;;;;7.90;2.33;;;21.00;99.90;;;;;;4967065;28;20579;-82
2022/06/10 09:33:43;;;;;;;5.43;2.00;;;21.10;99.90;;;;;;4967982;28;20222;-80
2022/06/10 09:36:16;;;;;;;5.70;2.30;;;21.20;99.90;;;;;;4966681;28;20752;-81
2022/06/10 09:38:53;;;;;;;7.28;2.10;;;21.20;99.90;;;;;;4967677;28;20684;-85
2022/06/10 09:41:28;;;;;;;8.60;2.38;;;21.40;99.90;;;;;;4967157;28;20209;-81
2022/06/10 09:44:07;;;;;;;5.35;2.10;;;21.80;99.90;;;;;;4967525;28;20549;-82
2022/06/10 09:46:54;;;;;;;5.85;2.10;;;21.90;99.90;;;;;;4968731;28;20601;-82
2022/06/10 09:49:40;;;;;;;4.93;2.33;;;22.40;99.90;;;;;;4968642;28;20220;-80
2022/06/10 09:52:17;;;;;;;7.93;2.10;;;22.80;99.90;;;;;;4965323;28;20228;-81
2022/06/10 09:54:55;;;;;;;6.47;2.28;;;23.20;99.90;;;;;;4968153;28;20536;-82
2022/06/10 09:58:00;;;;;;;5.75;2.15;;;23.50;99.90;;;;;;4965785;28;20230;-82
2022/06/10 10:00:38;;;;;;;6.38;1.90;;;23.90;99.90;;;;;;4961550;28;20228;-80
2022/06/10 10:03:21;;;;;;;5.70;1.85;;;24.20;99.90;;;;;;4972895;28;20621;-82
2022/06/10 10:06:04;;;;;;;6.80;1.95;;;24.30;99.90;;;;;;4966889;28;20218;-83
2022/06/10 10:08:37;;;;;;;6.63;1.38;;;24.60;99.90;;;;;;4973095;28;20223;-83
2022/06/10 10:11:09;;;;;;;4.47;1.27;;;24.50;99.90;;;;;;4979405;28;20220;-84
2022/06/10 10:13:54;;;;;;;4.07;1.67;;;24.70;99.90;;;;;;4981976;28;20244;-86
2022/06/10 10:16:34;;;;;;;5.60;1.40;;;24.70;99.90;;;;;;4978958;28;20240;-83
2022/06/10 10:19:14;;;;;;;8.63;2.17;;;24.80;99.90;;;;;;4976969;28;20243;-83
2022/06/10 10:21:58;;;;;;;6.53;1.77;;;24.70;99.90;;;;;;4966962;28;20228;-83
2022/06/10 10:24:27;;;;;;;6.13;1.90;;;25.00;99.90;;;;;;4965621;28;20242;-83
2022/06/10 10:26:58;;;;;;;7.68;2.50;;;25.10;99.90;;;;;;4965177;28;20579;-85
2022/06/10 10:29:27;;;;;;;8.05;2.60;;;25.40;99.90;;;;;;4967414;28;20564;-85
2022/06/10 10:32:01;;;;;;;14.02;2.40;;;25.50;99.90;;;;;;4970192;28;20200;-85
2022/06/10 10:34:37;;;;;;;9.93;2.08;;;25.40;99.90;;;;;;4971503;28;20476;-90
2022/06/10 10:37:07;;;;;;;6.35;2.20;;;25.50;99.90;;;;;;4972107;28;20203;-87
2022/06/10 10:39:36;;;;;;;8.43;2.03;;;25.50;99.90;;;;;;4973521;28;20273;-92
2022/06/10 10:42:06;;;;;;;6.25;2.22;;;25.40;99.90;;;;;;4961054;28;20308;-87
2022/06/10 10:44:42;;;;;;;6.30;2.30;;;25.50;99.90;;;;;;4953107;29;20597;-85
2022/06/10 10:50:17;;;;;;;7.57;2.85;;;25.70;99.90;;;;;;4972480;28;20334;-86
2022/06/10 10:52:45;;;;;;;8.10;2.63;;;25.90;99.90;;;;;;4973301;28;20272;-86
2022/06/10 10:55:25;;;;;;;7.43;2.80;;;26.00;99.90;;;;;;4974058;28;20467;-89
2022/06/10 10:58:06;;;;;;;9.23;3.20;;;25.90;99.90;;;;;;4972683;28;20318;-88
2022/06/10 11:00:37;;;;;;;9.00;2.65;;;25.90;99.90;;;;;;4970891;28;20307;-91
2022/06/10 11:03:06;;;;;;;7.35;2.88;;;25.80;99.90;;;;;;4974427;28;20288;-89
2022/06/10 11:05:36;;;;;;;8.85;3.50;;;25.70;99.90;;;;;;4975260;28;20231;-88
2022/06/10 11:08:17;;;;;;;6.25;2.80;;;25.60;99.90;;;;;;4973991;28;20213;-90
2022/06/10 11:10:54;;;;;;;9.45;3.15;;;25.60;99.90;;;;;;4974420;28;20212;-85
2022/06/10 11:13:26;;;;;;;10.27;2.80;;;25.60;99.90;;;;;;4972810;28;20250;-88
2022/06/10 11:15:54;;;;;;;10.40;3.17;;;25.50;99.90;;;;;;4973311;28;20205;-93
2022/06/10 11:18:23;;;;;;;9.52;3.83;;;25.30;99.90;;;;;;4973074;28;20207;-90
2022/06/10 11:20:50;;;;;;;9.00;3.70;;;25.20;99.90;;;;;;4973295;28;20212;-83
2022/06/10 11:23:24;;;;;;;7.22;3.05;;;25.10;99.90;;;;;;4969585;28;20216;-87
2022/06/10 11:26:05;;;;;;;9.35;3.50;;;25.00;99.90;;;;;;4953383;29;20228;-88
2022/06/10 11:28:39;;;;;;;10.93;3.20;;;25.20;99.90;;;;;;4964295;28;20211;-90
2022/06/10 11:31:18;;;;;;;11.90;3.47;;;25.10;99.90;;;;;;4972359;28;20226;-91
2022/06/10 11:33:49;;;;;;;9.20;3.25;;;25.30;99.90;;;;;;4968994;28;20306;-88
2022/06/10 11:36:36;;;;;;;7.80;3.40;;;25.40;99.90;;;;;;4971923;28;20212;-89
2022/06/10 11:39:18;;;;;;;7.15;3.40;;;25.50;99.90;;;;;;4969504;28;20228;-87
2022/06/10 11:41:59;;;;;;;9.40;3.15;;;25.40;99.90;;;;;;4968156;28;20224;-85
2022/06/10 11:44:29;;;;;;;10.75;2.90;;;25.30;99.90;;;;;;4968667;28;20319;-86
2022/06/10 11:47:04;;;;;;;9.85;3.60;;;25.30;99.90;;;;;;4969904;28;20217;-89
2022/06/10 11:49:40;;;;;;;10.77;3.45;;;25.40;99.90;;;;;;4970257;28;20311;-86
2022/06/10 11:52:16;;;;;;;10.50;3.08;;;25.30;99.90;;;;;;4967508;28;20215;-89
2022/06/10 11:54:51;;;;;;;11.00;3.47;;;25.40;99.90;;;;;;4966593;28;20220;-90
2022/06/10 12:00:15;;;;;;;11.70;3.67;;;25.30;99.90;;;;;;4968657;28;20505;-88
2022/06/10 12:02:47;;;;;;;9.00;3.25;;;25.20;99.90;;;;;;4969786;28;20622;-88
2022/06/10 12:05:28;;;;;;;8.85;3.28;;;25.30;99.90;;;;;;4974010;28;20236;-87
2022/06/10 12:08:06;;;;;;;9.15;3.35;;;25.30;99.90;;;;;;4973517;28;20215;-87
2022/06/10 12:10:43;;;;;;;9.15;3.38;;;25.10;99.90;;;;;;4970183;28;20520;-85
2022/06/10 12:13:12;;;;;;;7.95;2.97;;;25.10;99.90;;;;;;4972493;28;20227;-89
2022/06/10 12:15:53;;;;;;;9.98;3.45;;;25.40;99.90;;;;;;4970048;28;20232;-86
2022/06/10 12:18:22;;;;;;;10.15;3.42;;;25.50;99.90;;;;;;4971288;28;20227;-87
2022/06/10 12:20:54;;;;;;;12.23;3.78;;;25.60;99.90;;;;;;4972993;28;20210;-88
2022/06/10 12:23:26;;;;;;;8.30;3.05;;;25.70;99.90;;;;;;4972448;28;20741;-89
2022/06/10 12:26:09;;;;;;;11.07;3.67;;;25.50;99.90;;;;;;4969375;28;20531;-83
2022/06/10 12:28:41;;;;;;;13.40;4.43;;;25.60;99.90;;;;;;4972400;28;20212;-85
2022/06/10 12:31:28;;;;;;;10.73;3.22;;;25.70;99.90;;;;;;4968649;28;20212;-85
2022/06/10 12:34:01;;;;;;;12.93;4.03;;;25.50;99.90;;;;;;4971673;28;20303;-87
2022/06/10 12:36:39;;;;;;;17.02;4.63;;;25.40;99.90;;;;;;4969151;28;20684;-86
2022/06/10 12:39:12;;;;;;;14.85;4.65;;;25.50;99.90;;;;;;4975636;28;20204;-87
2022/06/10 12:41:43;;;;;;;9.63;3.20;;;25.50;99.90;;;;;;4975183;28;20295;-88
2022/06/10 12:44:16;;;;;;;12.48;4.07;;;25.50;99.90;;;;;;4975662;28;20208;-85
2022/06/10 12:46:45;;;;;;;7.45;2.65;;;25.70;99.90;;;;;;4956144;29;20243;-89
2022/06/10 12:49:22;;;;;;;6.07;2.47;;;25.80;99.90;;;;;;4967225;28;20517;-89
2022/06/10 12:52:02;;;;;;;7.28;2.92;;;25.70;99.90;;;;;;4977330;28;20306;-91
2022/06/10 12:54:40;;;;;;;9.13;2.75;;;25.60;99.90;;;;;;4977322;28;20789;-91
2022/06/10 12:57:29;;;;;;;9.98;2.78;;;25.50;99.90;;;;;;4977361;28;20208;-90
2022/06/10 13:00:42;;;;;;;8.55;2.85;;;25.30;99.90;;;;;;4977511;28;20204;-90
2022/06/10 13:03:31;;;;;;;6.25;2.83;;;25.30;99.90;;;;;;4958041;29;20273;-90
2022/06/10 13:06:03;;;;;;;6.82;2.72;;;25.30;99.90;;;;;;4971230;28;20221;-91
2022/06/10 13:08:52;;;;;;;8.23;2.88;;;25.30;99.90;;;;;;4976891;28;20204;-89
2022/06/10 13:11:32;;;;;;;9.52;3.35;;;25.30;99.90;;;;;;4976127;28;20272;-91
2022/06/10 13:14:20;;;;;;;7.93;3.05;;;25.10;99.90;;;;;;4975037;28;20244;-92
2022/06/10 13:17:07;;;;;;;11.15;2.97;;;25.10;99.90;;;;;;4975806;28;20219;-85
2022/06/10 13:19:37;;;;;;;6.65;2.80;;;25.20;99.90;;;;;;4974711;28;20193;-89
2022/06/10 13:22:33;;;;;;;7.15;2.90;;;25.30;99.90;;;;;;4972146;28;20260;-87
2022/06/10 13:25:27;;;;;;;7.72;2.40;;;25.30;99.90;;;;;;4970587;28;20232;-88
2022/06/10 13:27:55;;;;;;;6.38;1.90;;;25.30;99.90;;;;;;4962758;28;20219;-89